This is the latest recevied weather packets stored in our database for station/object KP4DJT. If no packets are shown the sender has not sent any weather packets the latest 10 day(s).
| Time | Temp. | Humidity | Pressure | Rain* | Wind** | Luminosity | Snow |
|---|---|---|---|---|---|---|---|
| 1777240939 | 28.89° C | 59% | 1002.4 hPa | 0 mm | - | 552 W/m² | - |
| 1777232538 | 28.33° C | 62% | 1004.2 hPa | 0 mm | - | 290 W/m² | - |
| 1777230139 | 27.22° C | 66% | 1004.8 hPa | 0 mm | - | 1026 W/m² | - |
| 1777228939 | 26.67° C | 67% | 1005 hPa | 0 mm | - | 539 W/m² | - |
| 1777224760 | 25.56° C | 69% | 1005.8 hPa | 0 mm | - | 310 W/m² | - |
| 1777224160 | 26.11° C | 70% | 1005.8 hPa | 0 mm | - | 619 W/m² | - |
| 1777222357 | 25° C | 71% | 1006.1 hPa | 0 mm | - | 635 W/m² | - |
| 1777218141 | 23.33° C | 70% | 1007 hPa | 0 mm | - | 597 W/m² | - |
| 1777213939 | 21.11° C | 76% | 1007.1 hPa | 0 mm | - | 356 W/m² | - |
| 1777206740 | 18.33° C | 93% | 1007.2 hPa | 0 mm | - | 33 W/m² | - |
| 1777200739 | 18.33° C | 95% | 1006.8 hPa | 0 mm | - | 0 W/m² | - |
| 1777198339 | 18.33° C | 95% | 1006.9 hPa | 0 mm | - | 0 W/m² | - |
| 1777195939 | 18.33° C | 94% | 1006.7 hPa | 0 mm | - | 0 W/m² | - |
| 1777191157 | 18.89° C | 95% | 1006.5 hPa | 0 mm | - | 0 W/m² | - |
| 1777187541 | 19.44° C | 95% | 1006.7 hPa | 0 mm | - | 0 W/m² | - |
| 1777184539 | 20° C | 95% | 1006.8 hPa | 0 mm | - | 0 W/m² | - |
| 1777182739 | 20° C | 96% | 1007 hPa | 0 mm | - | 0 W/m² | - |
| 1777178562 | 20° C | 96% | 1007.4 hPa | 0 mm | - | 0 W/m² | - |
| 1777174344 | 20.56° C | 94% | 1007.7 hPa | 0 mm | - | 0 W/m² | - |
| 1777170139 | 20.56° C | 93% | 1007.3 hPa | 0 mm | - | 0 W/m² | - |
| 1777168339 | 20.56° C | 91% | 1005.9 hPa | 0 mm | - | 0 W/m² | - |
| 1777167136 | 20.56° C | 90% | 1005.6 hPa | 0 mm | - | 0 W/m² | - |
| 1777162940 | 21.67° C | 84% | 1005 hPa | 0 mm | - | 50 W/m² | - |
| 1777158138 | 22.78° C | 80% | 1005.2 hPa | 0 mm | - | 256 W/m² | - |
| 1777155739 | 22.78° C | 76% | 1005.1 hPa | 0 mm | - | 356 W/m² | - |
* Rain latest hour (hover to see other rain measurements)
** Current wind speed in m/s (hover to see current wind gust speed)